Insider trading report: Insider Sale on February 6, 2019, Part 2

This page lists insider stock sales reported to U.S. Securities and Exchange Commission (SEC) on February 6, 2019. To query the history of insider trading activities (stock purchases, sales, and option exercises) for a particular company, use the Issuer column. For insider stock purchases reported on this day see insider trading report: insider purchases reported on February 6, 2019.


 1   2 

Insider stock sales reported on February 6, 2019, Part 2
Symbol Issuer   Shares     Price     Value($)  
NBIX Neurocrine Biosciences Inc 1st time Grigoriadis Dimitri E. (Chief Research Officer) 1,375 88.12 121,166 2019-02-04
   Grigoriadis Dimitri E. (Chief Research Officer) 1,070 88.17 94,338 2019-02-05
   Lippoldt Darin (Chief Legal Officer) 1,225 88.09 107,913 2019-02-05
   Lloyd-smith Malcolm (Chief Regulatory Officer) 1,272 88.14 112,117 2019-02-05
   Gano Kyle (Chief Business Development Officer) 1,375 88.14 121,187 2019-02-04
   Gano Kyle (Chief Business Development Officer) 2,434 88.11 214,452 2019-02-05
   Benevich Eric (Chief Commercial Officer) 1,357 88.02 119,436 2019-02-05
NGS Natural Gas Services Group Inc 1st time Taylor Stephen Charles (Chief Executive Officer) 2,720 17.00 46,240 2019-02-05
NKE Nike Inc 1st time Parker Mark G (CHAIRMAN, PRESIDENT & CEO) 2,100 82.00 172,200 2019-02-04
   Parker Mark G (CHAIRMAN, PRESIDENT & CEO) 147,900 82.00 12,127,800 2019-02-05
NKTR Nektar Therapeutics 1st time Thomsen Jillian B. (SVP & Chief Accounting Officer) 16,119 42.16 679,577 2019-02-04
NSTG Nanostring Technologies Inc 1st time Allen Mary Tedd (SVP, Operations) 5,000 22.57 112,835 2019-02-04
NVR Nvr Inc 1st time Schar Dwight C 2,142 2,623.09 5,618,658 2019-02-05
   Schar Dwight C 1,938 2,614.93 5,067,734 2019-02-04
   Martinez Melquiades R. 1,000 2,611.99 2,611,990 2019-02-04
OLLI Ollie's Bargain Outlet Holdings, Inc. 1st time Butler Mark L (President, CEO) 55,337 80.21 4,438,580 2019-02-04
   Butler Mark L (President, CEO) 40,000 80.87 3,234,800 2019-02-05
OSIS Osi Systems Inc 1st time Mehra Ajay (Executve Vice President) 27,908 86.83 2,423,251 2019-02-04
   Ballhaus William Francis Jr 675 89.14 60,169 2019-02-04
PBYI Puma Biotechnology, Inc. 1st time Eyler Charles R (SEE REMARKS) 87 27.64 2,404 2019-02-04
   Auerbach Alan H (PRESIDENT AND CEO) 345 27.80 9,591 2019-02-04
   Bryce Richard Paul (SEE REMARKS) 89 27.77 2,471 2019-02-04
PKBK Parke Bancorp, Inc. 1st time Dalton Daniel J 2,130 19.50 41,535 2019-02-04
PLAB Photronics Inc 1st time Burr Richelle E (VP, General Counsel & Secy) 1,500 10.78 16,169 2019-02-04
PODD Insulet Corp 1st time Colleran David (SVP, Secretary and GC) 6,834 80.72 551,640 2019-02-05
POWI Power Integrations Inc 1st time Balakrishnan Balu (President and CEO) 5,984 66.36 397,122 2019-02-04
   Walker Clifford (VP Corporate Development) 655 66.10 43,296 2019-02-04
   Nayyar Sandeep (Chief Financial Officer) 917 66.04 60,561 2019-02-04
   Bailey Doug (VP Marketing) 656 66.25 43,458 2019-02-04
   Petrakian Raja (VP of Operations) 650 66.58 43,277 2019-02-04
   Sutherland Ben (VP of Sales) 731 66.58 48,669 2019-02-04
   Barsan Radu (VP of Technology, Engineering) 788 66.08 52,074 2019-02-04
   Matthews David Mh (VP of Product Development) 732 66.22 48,474 2019-02-04
PUB People's Utah Bancorp 1st time Fairclough, Jr. Fred W. (Director) 1,375 29.28 40,261 2019-02-06
PYPL Paypal Holdings, Inc. 1st time Schulman Daniel H (President and CEO) 30,000 91.31 2,739,210 2019-02-04
QADA, QADB Qad Inc 1st time Lopker Pamela M (President) 2,000 44.07 88,140 2019-02-05
RETA Reata Pharmaceuticals Inc 1st time Wilson Jason Douglas (Chief Financial Officer) 3,000 80.00 240,000 2019-02-05
RMBS Rambus Inc 1st time Kim Jae (SVP & General Counsel) 2,126 9.38 19,941 2019-02-05
ROP Roper Technologies Inc 1st time Stipancich John K (Executive VP, GC & Secretary) 9,000 295.85 2,662,650 2019-02-05
SAIL Sailpoint Technologies Holdings, Inc. 1st time Greenfield Howard R. (Chief Revenue Officer) 25,000 30.01 750,175 2019-02-04
SBBX Sb One Bancorp 1st time Mcnerney Robert (Director) 3,000 21.82 65,451 2019-02-06
SEIC Sei Investments Co 1st time Withrow Wayne (EXECUTIVE VICE PRESIDENT) 300 49.74 14,922 2019-02-04
   Withrow Wayne (EXECUTIVE VICE PRESIDENT) 15,500 50.00 775,000 2019-02-05
SLG Sl Green Realty Corp 1st time Hatkoff Craig M 2,500 92.24 230,600 2019-02-04
SMG Scotts Miracle-gro Co 1st time Hagedorn Katherine Littlefield 2,665 74.07 197,396 2019-02-04
SMTC Semtech Corp 1st time Chukwu Emeka (EVP and CFO) 1,100 51.00 56,100 2019-02-06
SSP E.w. Scripps Co 1st time Lawlor Brian G. (President, Local Media) 11,000 19.00 209,000 2019-02-05
SYY Sysco Corp 1st time Charlton Robert S (Executive Vice President) 22,321 65.83 1,469,391 2019-02-04
TNET Trinet Group Inc 1st time Griese Edward (SR. VP, INSURANCE SERVICES) 482 47.05 22,678 2019-02-04
TOL Toll Brothers Inc 1st time Connor Martin P. (Chief Financial Officer) 12,000 36.85 442,259 2019-02-05
TPIC Tpi Composites, Inc 1st time Derosa Michael Lawrence 37,158 30.90 1,148,182 2019-02-06
   Derosa Michael Lawrence 36,470 30.88 1,126,193 2019-02-04
   Derosa Michael Lawrence 13,600 31.05 422,280 2019-02-05
TTD Trade Desk, Inc. 1st time Ross Paul (Chief Financial Officer) 6,049 154.90 937,008 2019-02-05
   Stempeck Brian John (Chief Strategy Officer) 13,855 155.01 2,147,705 2019-02-05
   Stempeck Brian John (Chief Strategy Officer) 19,303 155.01 2,992,215 2018-02-04
TWLO Twilio Inc 1st time Hu George (Chief Operating Officer) 2,800 114.62 320,947 2019-02-05
   Hu George (Chief Operating Officer) 5,000 113.55 567,760 2019-02-04
USB Us Bancorp \de\ 1st time Godridge Leslie V (Vice Chairman) 14,737 51.50 758,955 2019-02-04
VRCA Verrica Pharmaceuticals Inc. 1st time Davidson Matt (10% Owner) 4,659 13.29 61,918 2019-02-05
   Davidson Matt (10% Owner) 7,900 12.84 101,396 2019-02-04
   Davidson Matt (10% Owner) 3,300 13.38 44,154 2019-02-06
VRTU Virtusa Corp 1st time Holler Thomas R (EVP and CSO) 24,197 49.00 1,185,653 2019-02-04
VRTX Vertex Pharmaceuticals Inc / Ma 1st time Leiden Jeffrey M (CEO & President) 32,250 186.43 6,012,206 2019-02-04
   Sachdev Amit (EVP, CRO) 12,722 186.92 2,377,996 2019-02-04
   Silva Paul M (SVP & Interim CFO) 4,247 187.13 794,741 2019-02-04
   Altshuler David (EVP, Global Research and CSO) 4,126 189.19 780,597 2019-02-04
   Arbuckle Stuart A (EVP\Chief Commercial Officer) 18,309 186.46 3,413,804 2019-02-04
   Parini Michael (EVP, CL&AO) 2,330 189.19 440,812 2019-02-04
W Wayfair Inc. 1st time Conine Steven (Co-Founder) 14,000 111.16 1,556,282 2019-02-04
   Shah Niraj (Chief Executive Officer) 14,000 111.62 1,562,652 2019-02-04
WAT Waters Corp /de/ 1st time Rae Elizabeth B (SVP, Global HR) 10,800 232.37 2,509,542 2019-02-05
WBS Webster Financial Corp 1st time Smith James Copenhaver 25,000 55.20 1,380,000 2019-02-05
   Smith James Copenhaver 30,000 54.94 1,648,110 2019-02-04
WING Wingstop Inc. 1st time Kruguer Lawrence (See Remarks) 2,663 65.06 173,254 2019-02-04
YRIV Yangtze River Port & Logistics Ltd 1st time Coleman James S. 130,694 1.68 218,912 2019-02-05
   Coleman James S. 87,197 1.73 150,414 2019-02-06
   Coleman James S. 44,393 1.58 70,096 2019-02-04
ZEN Zendesk, Inc. 1st time Gomez Elena (Chief Financial Officer) 2,000 70.00 140,000 2019-02-04
ZION Zions Bancorporation, National Association /ut/ 1st time Stephens Steven Dan (Executive Vice President) 8,000 48.17 385,376 2019-02-04

 1   2